Time;durP1;ratioP1;P1;durP2;ratioP2;P2;SDS_P1;SDS_P2;PMS_P1;PMS_P2;Temp;Humidity;BMP_temperature;BMP_pressure;BME280_temperature;BME280_humidity;BME280_pressure;Samples;Min_cycle;Max_cycle;Signal;HPM_P1;HPM_P2
2023/04/20 00:02:05;;;;;;;3.10;1.73;;;8.80;58.30;;;;;;6241828;23;20020;-72
2023/04/20 00:04:31;;;;;;;3.87;1.97;;;8.80;58.20;;;;;;6240009;23;20338;-72
2023/04/20 00:06:57;;;;;;;5.23;2.30;;;8.80;58.30;;;;;;6242521;22;20000;-72
2023/04/20 00:09:23;;;;;;;4.47;1.67;;;8.80;58.50;;;;;;6242445;22;20035;-73
2023/04/20 00:11:48;;;;;;;3.10;1.90;;;8.70;58.60;;;;;;6244648;23;20418;-72
2023/04/20 00:14:15;;;;;;;6.30;1.53;;;8.70;58.70;;;;;;6244153;23;19996;-73
2023/04/20 00:16:41;;;;;;;2.77;1.80;;;8.60;58.80;;;;;;6243742;22;20000;-72
2023/04/20 00:19:06;;;;;;;3.87;2.03;;;8.60;59.00;;;;;;6244251;23;20010;-72
2023/04/20 00:21:33;;;;;;;2.60;1.70;;;8.60;59.10;;;;;;6243723;22;20034;-72
2023/04/20 00:23:59;;;;;;;2.27;1.97;;;8.50;59.20;;;;;;6244139;22;20012;-73
2023/04/20 00:26:24;;;;;;;4.47;2.17;;;8.50;59.40;;;;;;6243742;23;20000;-72
2023/04/20 00:28:50;;;;;;;3.63;1.37;;;8.50;59.70;;;;;;6244390;22;20003;-72
2023/04/20 00:31:17;;;;;;;2.93;1.70;;;8.40;59.70;;;;;;6243323;23;19997;-72
2023/04/20 00:33:42;;;;;;;3.13;1.60;;;8.40;59.70;;;;;;6244209;22;20036;-72
2023/04/20 00:36:08;;;;;;;4.57;1.93;;;8.40;59.90;;;;;;6244161;23;20050;-72
2023/04/20 00:38:34;;;;;;;4.43;1.57;;;8.30;60.00;;;;;;6243494;23;20000;-73
2023/04/20 00:41:00;;;;;;;4.93;1.70;;;8.30;60.10;;;;;;6244582;22;20326;-72
2023/04/20 00:43:25;;;;;;;4.70;1.80;;;8.30;60.20;;;;;;6243807;23;20000;-73
2023/04/20 00:45:51;;;;;;;4.80;1.43;;;8.30;60.30;;;;;;6243772;22;20495;-72
2023/04/20 00:48:17;;;;;;;2.60;1.70;;;8.30;60.60;;;;;;6243526;22;20000;-72
2023/04/20 00:50:44;;;;;;;5.50;1.90;;;8.20;60.80;;;;;;6244116;22;19996;-72
2023/04/20 00:53:10;;;;;;;4.27;2.67;;;8.20;60.90;;;;;;6243999;22;20005;-72
2023/04/20 00:55:36;;;;;;;5.87;1.90;;;8.20;61.10;;;;;;6243549;22;20437;-72
2023/04/20 00:58:02;;;;;;;1.63;1.33;;;8.20;61.20;;;;;;6244048;22;20004;-72
2023/04/20 01:00:28;;;;;;;4.00;1.67;;;8.10;61.20;;;;;;6242931;23;19996;-72
2023/04/20 01:02:53;;;;;;;2.50;1.83;;;8.10;61.30;;;;;;6243999;22;20342;-72
2023/04/20 01:05:20;;;;;;;3.87;2.27;;;8.10;61.50;;;;;;6243330;23;20012;-73
2023/04/20 01:07:45;;;;;;;4.27;1.93;;;8.00;61.70;;;;;;6242323;23;20015;-72
2023/04/20 01:10:11;;;;;;;4.63;1.83;;;8.00;61.90;;;;;;6243618;23;20004;-73
2023/04/20 01:12:36;;;;;;;3.00;1.87;;;7.90;62.00;;;;;;6243893;23;20000;-72
2023/04/20 01:15:04;;;;;;;4.87;1.90;;;7.90;62.20;;;;;;6243341;23;20430;-72
2023/04/20 01:17:30;;;;;;;5.10;2.00;;;7.90;62.40;;;;;;6243047;22;20015;-72
2023/04/20 01:19:56;;;;;;;4.30;2.23;;;7.80;62.60;;;;;;6243897;22;20008;-72
2023/04/20 01:22:21;;;;;;;3.63;2.57;;;7.80;62.70;;;;;;6242545;23;20426;-72
2023/04/20 01:24:47;;;;;;;3.33;2.00;;;7.90;62.90;;;;;;6243613;23;20011;-72
2023/04/20 01:27:15;;;;;;;6.40;2.10;;;7.80;63.00;;;;;;6243269;22;20440;-72
2023/04/20 01:29:41;;;;;;;5.00;2.00;;;7.90;63.50;;;;;;6242591;22;19996;-72
2023/04/20 01:32:07;;;;;;;4.63;2.10;;;7.90;63.60;;;;;;6241993;22;20074;-72
2023/04/20 01:34:33;;;;;;;5.37;1.87;;;8.00;63.90;;;;;;6240788;23;20083;-72
2023/04/20 01:36:59;;;;;;;5.37;2.07;;;8.00;64.00;;;;;;6242291;23;20012;-72
2023/04/20 01:39:25;;;;;;;4.13;2.30;;;8.10;64.20;;;;;;6243012;22;20001;-75
2023/04/20 01:41:50;;;;;;;3.03;1.93;;;8.20;64.90;;;;;;6243370;23;20439;-72
2023/04/20 01:44:16;;;;;;;4.40;1.90;;;8.30;65.00;;;;;;6242430;23;20330;-72
2023/04/20 01:46:42;;;;;;;3.73;2.37;;;8.30;65.80;;;;;;6243552;23;20011;-72
2023/04/20 01:49:08;;;;;;;7.13;3.07;;;8.40;66.10;;;;;;6243432;23;20077;-72
2023/04/20 01:51:34;;;;;;;2.83;1.80;;;8.50;66.30;;;;;;6241299;23;20059;-72
2023/04/20 01:54:01;;;;;;;7.70;3.20;;;8.40;66.90;;;;;;6243272;23;19992;-72
2023/04/20 01:56:26;;;;;;;3.53;1.87;;;8.50;67.60;;;;;;6242767;22;20054;-72
2023/04/20 01:58:52;;;;;;;4.10;2.40;;;8.50;67.90;;;;;;6242968;23;20000;-72
2023/04/20 02:01:17;;;;;;;7.50;3.27;;;8.50;68.40;;;;;;6242417;22;20004;-72
2023/04/20 02:03:43;;;;;;;5.97;2.60;;;8.50;68.40;;;;;;6243183;23;20304;-72
2023/04/20 02:06:09;;;;;;;4.03;2.20;;;8.60;68.70;;;;;;6242998;23;20464;-72
2023/04/20 02:08:34;;;;;;;4.60;2.77;;;8.50;68.80;;;;;;6242687;23;20444;-72
2023/04/20 02:11:00;;;;;;;6.20;3.20;;;8.50;69.10;;;;;;6243187;22;20011;-73
2023/04/20 02:13:26;;;;;;;6.57;2.67;;;8.50;69.80;;;;;;6242421;23;20028;-72
2023/04/20 02:15:52;;;;;;;4.97;2.50;;;8.40;70.40;;;;;;6241672;23;20081;-72
2023/04/20 02:18:17;;;;;;;6.33;3.03;;;8.50;70.70;;;;;;6242746;23;20433;-72
2023/04/20 02:20:44;;;;;;;5.20;2.63;;;8.40;70.50;;;;;;6242935;23;20011;-72
2023/04/20 02:23:10;;;;;;;4.50;2.80;;;8.50;70.90;;;;;;6243117;22;20066;-72
2023/04/20 02:25:35;;;;;;;3.37;2.63;;;8.50;70.90;;;;;;6242538;23;20012;-72
2023/04/20 02:28:01;;;;;;;5.03;2.60;;;8.40;70.90;;;;;;6242704;23;20070;-72
2023/04/20 02:30:26;;;;;;;4.33;2.60;;;8.40;71.10;;;;;;6242395;23;19996;-72
2023/04/20 02:32:52;;;;;;;5.07;2.20;;;8.40;71.00;;;;;;6241054;23;20016;-72
2023/04/20 02:35:18;;;;;;;7.13;2.70;;;8.40;71.10;;;;;;6242498;23;20008;-72
2023/04/20 02:37:44;;;;;;;4.37;2.83;;;8.50;71.30;;;;;;6242933;23;20426;-73
2023/04/20 02:40:10;;;;;;;4.53;3.00;;;8.50;71.50;;;;;;6242762;22;20005;-72
2023/04/20 02:42:36;;;;;;;5.83;3.00;;;8.60;71.80;;;;;;6242497;22;20000;-72
2023/04/20 02:45:01;;;;;;;3.80;2.43;;;8.60;72.10;;;;;;6241774;23;20014;-72
2023/04/20 02:47:27;;;;;;;4.77;2.57;;;8.70;72.00;;;;;;6242121;22;20007;-72
2023/04/20 02:49:52;;;;;;;3.80;2.30;;;8.70;71.90;;;;;;6241949;23;20010;-72
2023/04/20 02:52:18;;;;;;;3.57;2.70;;;8.80;72.10;;;;;;6240773;23;20452;-72
2023/04/20 02:54:44;;;;;;;3.80;2.50;;;8.80;71.90;;;;;;6242913;23;20000;-72
2023/04/20 02:57:10;;;;;;;7.00;2.80;;;8.90;72.00;;;;;;6242465;23;20000;-72
2023/04/20 02:59:36;;;;;;;5.03;2.70;;;8.90;72.20;;;;;;6240941;23;20004;-72
2023/04/20 03:02:02;;;;;;;4.93;2.70;;;8.90;72.30;;;;;;6242759;22;20039;-72
2023/04/20 03:04:29;;;;;;;4.97;3.10;;;9.00;72.50;;;;;;6242010;22;20004;-73
2023/04/20 03:06:55;;;;;;;3.63;2.10;;;9.00;72.60;;;;;;6242723;22;19996;-72
2023/04/20 03:09:21;;;;;;;3.90;2.50;;;9.00;72.70;;;;;;6242132;22;20001;-72
2023/04/20 03:11:47;;;;;;;8.20;2.80;;;9.00;72.90;;;;;;6242447;22;20081;-72
2023/04/20 03:14:13;;;;;;;3.33;2.17;;;9.00;73.00;;;;;;6241746;23;20330;-73
2023/04/20 03:16:38;;;;;;;6.70;3.00;;;9.10;73.00;;;;;;6242541;23;20350;-72
2023/04/20 03:19:04;;;;;;;4.10;3.27;;;9.10;73.40;;;;;;6242356;23;20028;-72
2023/04/20 03:21:30;;;;;;;4.73;2.93;;;9.10;73.70;;;;;;6242105;23;20032;-72
2023/04/20 03:23:55;;;;;;;6.13;3.37;;;9.10;73.70;;;;;;6242625;22;20007;-72
2023/04/20 03:26:21;;;;;;;5.17;3.00;;;9.10;73.90;;;;;;6241614;23;20000;-72
2023/04/20 03:28:49;;;;;;;4.30;3.20;;;9.20;74.00;;;;;;6242584;23;20020;-73
2023/04/20 03:31:15;;;;;;;5.67;3.10;;;9.20;73.80;;;;;;6240152;23;20023;-72
2023/04/20 03:33:40;;;;;;;5.70;2.90;;;9.20;73.90;;;;;;6241481;23;20000;-72
2023/04/20 03:36:06;;;;;;;4.60;2.87;;;9.20;74.20;;;;;;6239521;23;20063;-72
2023/04/20 03:38:32;;;;;;;5.37;3.13;;;9.20;74.20;;;;;;6241784;22;20079;-72
2023/04/20 03:40:57;;;;;;;4.90;2.77;;;9.20;74.40;;;;;;6241761;23;20038;-72
2023/04/20 03:43:23;;;;;;;3.57;2.87;;;9.20;74.40;;;;;;6241927;23;20000;-72
2023/04/20 03:45:48;;;;;;;3.80;2.77;;;9.20;74.40;;;;;;6244228;23;20479;-72
2023/04/20 03:48:14;;;;;;;4.37;3.27;;;9.20;74.60;;;;;;6243975;23;20075;-72
2023/04/20 03:50:39;;;;;;;4.47;3.03;;;9.20;74.70;;;;;;6244122;23;20007;-72
2023/04/20 03:53:05;;;;;;;4.63;2.87;;;9.20;74.70;;;;;;6244553;23;20020;-72
2023/04/20 03:55:30;;;;;;;3.27;2.23;;;9.30;74.80;;;;;;6243598;23;20378;-73
2023/04/20 03:57:56;;;;;;;6.83;2.93;;;9.30;74.80;;;;;;6244595;23;20000;-72
2023/04/20 04:00:21;;;;;;;5.13;2.80;;;9.30;74.70;;;;;;6243772;23;20504;-72
2023/04/20 04:02:47;;;;;;;6.15;2.53;;;9.30;74.70;;;;;;6244389;23;20414;-72
2023/04/20 04:05:12;;;;;;;6.83;3.20;;;9.30;74.90;;;;;;6243849;23;20007;-72
2023/04/20 04:07:38;;;;;;;5.50;2.85;;;9.30;74.90;;;;;;6244313;23;20015;-72
2023/04/20 04:10:05;;;;;;;6.10;2.50;;;9.30;75.10;;;;;;6243749;23;20022;-72
2023/04/20 04:12:30;;;;;;;3.73;2.80;;;9.30;75.10;;;;;;6243863;22;20004;-72
2023/04/20 04:14:56;;;;;;;4.38;2.63;;;9.30;75.30;;;;;;6244219;23;20004;-72
2023/04/20 04:17:22;;;;;;;3.43;2.73;;;9.30;75.30;;;;;;6243404;23;20004;-72
2023/04/20 04:19:48;;;;;;;4.53;2.38;;;9.30;75.40;;;;;;6244371;22;20024;-72
2023/04/20 04:22:13;;;;;;;5.00;2.80;;;9.30;75.40;;;;;;6243822;23;20032;-72
2023/04/20 04:24:40;;;;;;;4.07;2.53;;;9.30;75.60;;;;;;6243525;22;20011;-72
2023/04/20 04:27:06;;;;;;;4.47;3.30;;;9.30;75.60;;;;;;6244354;22;20054;-72
2023/04/20 04:29:34;;;;;;;4.60;3.05;;;9.30;75.90;;;;;;6242216;23;20011;-72
2023/04/20 04:32:02;;;;;;;5.57;2.85;;;9.30;75.90;;;;;;6244224;22;20074;-72
2023/04/20 04:34:28;;;;;;;5.10;3.20;;;9.30;76.00;;;;;;6243767;22;19997;-73
2023/04/20 04:36:54;;;;;;;3.47;2.50;;;9.20;76.00;;;;;;6243661;22;20054;-72
2023/04/20 04:39:20;;;;;;;3.17;2.47;;;9.30;75.90;;;;;;6243789;22;20000;-73
2023/04/20 04:41:46;;;;;;;5.60;3.07;;;9.30;76.10;;;;;;6243989;23;20028;-72
2023/04/20 04:44:11;;;;;;;3.47;2.13;;;9.30;76.70;;;;;;6243620;22;20000;-73
2023/04/20 04:46:37;;;;;;;5.87;2.80;;;9.30;76.30;;;;;;6243791;23;20015;-72
2023/04/20 04:49:03;;;;;;;5.10;2.70;;;9.30;76.50;;;;;;6243964;23;20440;-72
2023/04/20 04:51:30;;;;;;;6.85;3.40;;;9.30;76.70;;;;;;6241313;23;20066;-72
2023/04/20 04:53:56;;;;;;;5.93;2.83;;;9.30;76.80;;;;;;6243951;22;20307;-72
2023/04/20 04:56:22;;;;;;;4.90;3.17;;;9.30;76.80;;;;;;6243086;23;20110;-72
2023/04/20 04:58:47;;;;;;;4.63;2.70;;;9.30;76.70;;;;;;6244184;22;20410;-72
2023/04/20 05:01:13;;;;;;;5.40;2.70;;;9.30;76.80;;;;;;6243693;23;20008;-71
2023/04/20 05:03:38;;;;;;;4.10;2.90;;;9.30;76.80;;;;;;6244157;23;20329;-72
2023/04/20 05:06:05;;;;;;;6.83;3.13;;;9.30;76.90;;;;;;6243146;23;20054;-72
2023/04/20 05:08:30;;;;;;;4.03;3.37;;;9.40;77.00;;;;;;6243462;22;20000;-72
2023/04/20 05:10:56;;;;;;;5.80;3.07;;;9.40;77.00;;;;;;6243801;23;20004;-72
2023/04/20 05:13:22;;;;;;;4.93;2.97;;;9.40;77.20;;;;;;6243619;23;20836;-72
2023/04/20 05:15:47;;;;;;;5.77;3.17;;;9.40;77.10;;;;;;6243727;23;20004;-73
2023/04/20 05:18:13;;;;;;;4.27;3.30;;;9.40;77.30;;;;;;6243196;23;20079;-72
2023/04/20 05:20:38;;;;;;;7.43;3.07;;;9.40;77.30;;;;;;6243161;23;20011;-72
2023/04/20 05:23:04;;;;;;;7.10;3.17;;;9.50;77.60;;;;;;6243760;23;20015;-72
2023/04/20 05:25:31;;;;;;;5.73;3.40;;;9.50;77.50;;;;;;6242867;23;20061;-72
2023/04/20 05:27:57;;;;;;;9.00;3.67;;;9.50;77.80;;;;;;6243969;22;20071;-73
2023/04/20 05:30:22;;;;;;;3.90;2.77;;;9.60;77.90;;;;;;6243008;23;20032;-75
2023/04/20 05:32:48;;;;;;;6.03;3.47;;;9.60;78.60;;;;;;6243572;23;20007;-75
2023/04/20 05:35:14;;;;;;;5.47;3.00;;;9.70;78.10;;;;;;6242600;22;20007;-72
2023/04/20 05:37:40;;;;;;;4.97;2.92;;;9.70;78.20;;;;;;6243612;22;20004;-72
2023/04/20 05:40:06;;;;;;;5.00;3.00;;;9.70;78.10;;;;;;6243472;22;20000;-72
2023/04/20 05:42:32;;;;;;;3.20;2.90;;;9.70;78.20;;;;;;6243258;22;20004;-72
2023/04/20 05:44:57;;;;;;;5.80;3.50;;;9.70;78.20;;;;;;6243383;23;20008;-72
2023/04/20 05:47:23;;;;;;;8.53;3.43;;;9.80;78.40;;;;;;6242910;23;20326;-72
2023/04/20 05:49:48;;;;;;;5.17;2.93;;;9.70;78.40;;;;;;6242925;23;20000;-72
2023/04/20 05:52:14;;;;;;;6.03;2.90;;;9.70;78.40;;;;;;6242908;23;20071;-72
2023/04/20 05:54:40;;;;;;;3.20;2.63;;;9.80;78.30;;;;;;6243101;22;20010;-72
2023/04/20 05:57:05;;;;;;;3.67;2.90;;;9.80;78.30;;;;;;6243382;23;20035;-72
2023/04/20 05:59:31;;;;;;;5.23;3.47;;;9.80;78.40;;;;;;6242824;23;20384;-74
2023/04/20 06:01:56;;;;;;;5.90;3.27;;;9.80;78.50;;;;;;6243328;23;20065;-75
2023/04/20 06:04:22;;;;;;;3.77;2.97;;;9.90;78.50;;;;;;6242082;23;20082;-81
2023/04/20 06:06:47;;;;;;;6.33;3.50;;;9.90;78.40;;;;;;6243054;23;20000;-83
2023/04/20 06:09:13;;;;;;;4.87;2.83;;;9.90;78.40;;;;;;6241016;23;20430;-82
2023/04/20 06:11:39;;;;;;;6.57;3.13;;;10.00;78.40;;;;;;6243047;23;20000;-82
2023/04/20 06:14:04;;;;;;;7.00;3.27;;;10.10;78.90;;;;;;6243134;23;20007;-82
2023/04/20 06:16:30;;;;;;;4.70;3.40;;;10.10;78.30;;;;;;6242673;22;20000;-82
2023/04/20 06:18:55;;;;;;;5.28;3.13;;;10.20;78.30;;;;;;6241214;23;20003;-82
2023/04/20 06:21:23;;;;;;;5.20;3.47;;;10.30;78.20;;;;;;6241276;23;20004;-82
2023/04/20 06:23:49;;;;;;;6.80;3.90;;;10.30;78.10;;;;;;6243262;22;20069;-82
2023/04/20 06:26:14;;;;;;;8.13;3.77;;;10.30;78.20;;;;;;6240939;23;20323;-80
2023/04/20 06:28:40;;;;;;;6.10;3.57;;;10.30;78.20;;;;;;6241531;23;20000;-81
2023/04/20 06:31:06;;;;;;;5.97;3.50;;;10.20;78.30;;;;;;6241352;23;20086;-81
2023/04/20 06:33:31;;;;;;;7.00;4.27;;;10.20;78.40;;;;;;6239292;23;20311;-82
2023/04/20 06:35:57;;;;;;;5.73;3.23;;;10.20;78.70;;;;;;6238462;23;20079;-81
2023/04/20 06:38:24;;;;;;;6.27;3.87;;;10.20;78.80;;;;;;6237707;23;20004;-82
2023/04/20 06:40:50;;;;;;;5.55;3.60;;;10.20;78.70;;;;;;6240559;22;20054;-82
2023/04/20 06:43:15;;;;;;;4.07;3.38;;;10.30;78.80;;;;;;6240404;22;19996;-82
2023/04/20 06:45:41;;;;;;;5.72;4.30;;;10.40;78.60;;;;;;6240405;23;20004;-81
2023/04/20 06:48:06;;;;;;;6.72;4.15;;;10.60;78.50;;;;;;6239575;23;20303;-81
2023/04/20 06:50:32;;;;;;;6.28;3.53;;;10.60;78.40;;;;;;6240813;23;20069;-81
2023/04/20 06:52:58;;;;;;;4.78;4.30;;;10.70;78.40;;;;;;6241103;23;20000;-80
2023/04/20 06:55:24;;;;;;;4.55;3.28;;;10.90;78.10;;;;;;6240540;23;20011;-79
2023/04/20 06:57:49;;;;;;;5.97;4.03;;;10.80;77.30;;;;;;6243116;22;20004;-78
2023/04/20 07:00:15;;;;;;;7.25;3.92;;;10.80;77.60;;;;;;6242437;23;20046;-79
2023/04/20 07:02:46;;;;;;;5.00;4.05;;;10.70;77.80;;;;;;6237702;23;20366;-78
2023/04/20 07:05:13;;;;;;;7.85;3.83;;;10.70;77.90;;;;;;6240627;23;20012;-78
2023/04/20 07:07:38;;;;;;;4.68;3.80;;;10.70;78.00;;;;;;6240611;23;20054;-78
2023/04/20 07:10:08;;;;;;;7.30;4.35;;;10.70;78.10;;;;;;6241062;23;20020;-78
2023/04/20 07:12:37;;;;;;;8.45;4.47;;;10.60;78.20;;;;;;6239618;23;20004;-78
2023/04/20 07:15:04;;;;;;;8.52;4.55;;;10.70;78.70;;;;;;6240980;23;20087;-78
2023/04/20 07:17:30;;;;;;;6.32;4.57;;;10.80;78.70;;;;;;6243009;22;20011;-78
2023/04/20 07:19:56;;;;;;;6.90;4.27;;;10.70;78.80;;;;;;6256144;23;20001;-79
2023/04/20 07:22:22;;;;;;;7.53;4.67;;;10.60;79.20;;;;;;6250254;22;20008;-79
2023/04/20 07:24:48;;;;;;;7.40;4.47;;;10.60;79.60;;;;;;6242945;22;20418;-80
2023/04/20 07:27:13;;;;;;;5.33;4.07;;;10.60;79.70;;;;;;6247307;23;20006;-80
2023/04/20 07:29:39;;;;;;;4.80;4.07;;;10.60;80.00;;;;;;6255082;23;20064;-80
2023/04/20 07:32:05;;;;;;;4.90;4.47;;;10.60;80.50;;;;;;6252998;23;20020;-80
2023/04/20 07:34:30;;;;;;;7.22;4.85;;;10.60;79.90;;;;;;6243209;23;20014;-80
2023/04/20 07:36:56;;;;;;;6.38;4.63;;;10.50;80.30;;;;;;6241247;23;20031;-80
2023/04/20 07:39:24;;;;;;;6.10;4.75;;;10.50;80.40;;;;;;6239749;23;20004;-80
2023/04/20 07:41:49;;;;;;;9.18;5.78;;;10.60;80.60;;;;;;6242374;22;20007;-80
2023/04/20 07:44:15;;;;;;;7.45;5.38;;;10.50;80.90;;;;;;6240574;23;20001;-80
2023/04/20 07:46:40;;;;;;;6.45;5.30;;;10.50;80.90;;;;;;6240407;23;20000;-80
2023/04/20 07:49:06;;;;;;;7.93;5.63;;;10.50;81.30;;;;;;6242539;22;20000;-80
2023/04/20 07:51:33;;;;;;;5.95;5.03;;;10.40;81.30;;;;;;6240425;23;20011;-79
2023/04/20 07:53:58;;;;;;;9.23;6.22;;;10.50;81.50;;;;;;6240944;23;20201;-79
2023/04/20 07:56:24;;;;;;;6.35;5.03;;;10.50;81.50;;;;;;6241840;23;20358;-80
2023/04/20 07:58:50;;;;;;;7.97;6.03;;;10.50;81.40;;;;;;6242604;22;20024;-80
2023/04/20 08:01:16;;;;;;;8.38;6.43;;;10.50;81.50;;;;;;6241189;23;20046;-80
2023/04/20 08:03:41;;;;;;;8.45;5.53;;;10.60;81.70;;;;;;6240643;23;20054;-80
2023/04/20 08:06:08;;;;;;;7.65;5.75;;;10.60;81.40;;;;;;6241402;23;20077;-79
2023/04/20 08:08:33;;;;;;;7.03;5.68;;;10.70;81.40;;;;;;6241210;22;20000;-80
2023/04/20 08:10:59;;;;;;;8.25;5.75;;;10.80;81.50;;;;;;6240270;23;20091;-80
2023/04/20 08:13:26;;;;;;;7.88;5.68;;;10.80;82.10;;;;;;6242050;23;20058;-80
2023/04/20 08:15:51;;;;;;;15.45;6.88;;;10.80;81.40;;;;;;6245751;22;20000;-81
2023/04/20 08:18:17;;;;;;;12.30;6.65;;;10.80;81.40;;;;;;6245767;23;20007;-79
2023/04/20 08:20:44;;;;;;;9.63;6.43;;;10.80;81.40;;;;;;6246275;23;20022;-80
2023/04/20 08:23:10;;;;;;;9.18;6.15;;;10.90;81.40;;;;;;6246085;22;20000;-80
2023/04/20 08:25:38;;;;;;;9.25;5.70;;;10.80;81.40;;;;;;6242213;22;20502;-80
2023/04/20 08:28:05;;;;;;;8.38;5.10;;;10.90;81.70;;;;;;6240257;23;20019;-80
2023/04/20 08:30:30;;;;;;;6.43;5.05;;;11.10;81.50;;;;;;6239213;23;20512;-80
2023/04/20 08:32:57;;;;;;;6.18;5.55;;;11.10;81.20;;;;;;6242235;23;20016;-80
2023/04/20 08:35:22;;;;;;;5.53;4.85;;;11.20;81.10;;;;;;6243764;22;20004;-79
2023/04/20 08:37:48;;;;;;;8.82;5.45;;;11.30;80.90;;;;;;6244898;23;20139;-79
2023/04/20 08:40:14;;;;;;;6.60;5.30;;;11.40;80.90;;;;;;6243486;23;20058;-79
2023/04/20 08:42:40;;;;;;;6.20;5.28;;;11.40;80.40;;;;;;6244271;22;20016;-79
2023/04/20 08:45:06;;;;;;;8.85;6.40;;;11.40;80.40;;;;;;6244281;23;20008;-78
2023/04/20 08:47:33;;;;;;;8.93;5.18;;;11.40;80.70;;;;;;6242226;23;20151;-79
2023/04/20 08:49:59;;;;;;;9.35;5.35;;;11.30;80.70;;;;;;6242660;23;20449;-79
2023/04/20 08:52:25;;;;;;;7.05;6.20;;;11.10;81.00;;;;;;6243142;22;20327;-79
2023/04/20 08:54:50;;;;;;;7.15;6.07;;;11.10;81.30;;;;;;6242737;23;20000;-79
2023/04/20 08:57:16;;;;;;;11.77;5.75;;;11.10;81.70;;;;;;6243525;23;20071;-80
2023/04/20 08:59:41;;;;;;;8.50;6.10;;;11.10;81.90;;;;;;6243546;23;20075;-79
2023/04/20 09:02:11;;;;;;;8.05;5.80;;;11.10;81.90;;;;;;6243368;23;20058;-79
2023/04/20 09:04:38;;;;;;;6.72;5.68;;;11.10;81.90;;;;;;6241647;23;20062;-79
2023/04/20 09:07:04;;;;;;;10.70;5.53;;;11.20;82.00;;;;;;6243378;22;20035;-79
2023/04/20 09:09:30;;;;;;;8.05;5.55;;;11.20;82.10;;;;;;6243428;22;19996;-79
2023/04/20 09:12:05;;;;;;;6.65;5.07;;;11.20;82.10;;;;;;6242054;23;20007;-79
2023/04/20 09:14:44;;;;;;;9.13;5.85;;;11.20;82.20;;;;;;6241824;23;20315;-79
2023/04/20 09:17:13;;;;;;;6.47;5.85;;;11.20;82.30;;;;;;6243656;22;20004;-79
2023/04/20 09:19:39;;;;;;;6.43;5.80;;;11.20;82.20;;;;;;6243829;22;20000;-79
2023/04/20 09:22:05;;;;;;;7.18;5.60;;;11.10;82.10;;;;;;6243359;22;20024;-79
2023/04/20 09:24:36;;;;;;;8.73;5.95;;;11.10;82.40;;;;;;6242141;23;20005;-80
2023/04/20 09:27:13;;;;;;;6.40;5.10;;;11.00;82.70;;;;;;6243257;22;20000;-80
2023/04/20 09:29:39;;;;;;;6.25;5.55;;;10.90;83.00;;;;;;6242971;23;20014;-82
2023/04/20 09:32:04;;;;;;;8.35;5.57;;;10.80;83.40;;;;;;6243584;23;20034;-79
2023/04/20 09:34:30;;;;;;;5.32;4.82;;;10.80;83.70;;;;;;6256904;23;20019;-79
2023/04/20 09:36:56;;;;;;;7.00;4.93;;;10.90;83.70;;;;;;6260397;22;20000;-80
2023/04/20 09:39:25;;;;;;;7.30;5.68;;;10.90;83.90;;;;;;6250070;22;20004;-80
2023/04/20 09:41:51;;;;;;;9.05;4.97;;;11.00;83.70;;;;;;6243892;22;20007;-80
2023/04/20 09:44:20;;;;;;;7.40;5.80;;;11.00;83.40;;;;;;6254985;23;19996;-78
2023/04/20 09:46:45;;;;;;;8.20;5.50;;;11.00;83.50;;;;;;6258535;23;20000;-80
2023/04/20 09:49:13;;;;;;;7.28;4.70;;;11.10;83.70;;;;;;6245521;23;20058;-81
2023/04/20 09:51:43;;;;;;;5.68;5.07;;;11.00;83.40;;;;;;6243835;22;20071;-80
2023/04/20 09:54:10;;;;;;;8.63;5.55;;;10.90;83.40;;;;;;6243965;22;19998;-80
2023/04/20 09:56:35;;;;;;;6.47;5.18;;;10.90;83.70;;;;;;6243525;22;20004;-80
2023/04/20 09:59:02;;;;;;;5.95;4.75;;;10.80;84.10;;;;;;6242419;23;20337;-80
2023/04/20 10:01:33;;;;;;;9.63;5.35;;;10.90;84.30;;;;;;6241725;23;20000;-80
2023/04/20 10:04:00;;;;;;;6.82;5.32;;;11.00;84.20;;;;;;6241691;23;20087;-80
2023/04/20 10:06:29;;;;;;;7.05;5.32;;;11.10;83.90;;;;;;6241557;23;20004;-81
2023/04/20 10:08:55;;;;;;;8.32;5.45;;;11.20;83.60;;;;;;6240632;23;20071;-80
2023/04/20 10:11:28;;;;;;;6.70;4.55;;;11.30;83.50;;;;;;6240825;22;20087;-80
2023/04/20 10:13:55;;;;;;;7.55;4.22;;;11.30;82.60;;;;;;6242713;22;20473;-80
2023/04/20 10:16:20;;;;;;;5.60;4.00;;;11.40;82.80;;;;;;6244794;22;20432;-80
2023/04/20 10:19:03;;;;;;;6.93;4.47;;;11.60;82.60;;;;;;6244260;22;20004;-80
2023/04/20 10:21:31;;;;;;;6.60;4.68;;;11.70;81.60;;;;;;6244065;23;20005;-80
2023/04/20 10:23:59;;;;;;;6.47;4.68;;;11.70;80.90;;;;;;6244201;22;20011;-80
2023/04/20 10:26:36;;;;;;;7.97;4.75;;;11.80;81.00;;;;;;6240126;23;20020;-80
2023/04/20 10:29:02;;;;;;;4.82;4.32;;;11.90;80.10;;;;;;6242981;22;20004;-79
2023/04/20 10:31:38;;;;;;;6.50;4.68;;;12.00;80.30;;;;;;6241972;23;20350;-80
2023/04/20 10:34:05;;;;;;;7.40;4.32;;;12.20;80.00;;;;;;6242728;22;20430;-79
2023/04/20 10:36:33;;;;;;;5.85;4.38;;;12.30;79.70;;;;;;6242557;22;20547;-81
2023/04/20 10:39:01;;;;;;;5.80;4.88;;;12.40;78.30;;;;;;6242728;22;20414;-79
2023/04/20 10:41:27;;;;;;;4.00;3.42;;;12.30;78.30;;;;;;6240197;23;20008;-81
2023/04/20 10:43:52;;;;;;;5.80;3.78;;;12.30;78.60;;;;;;6241056;23;20015;-79
2023/04/20 10:46:23;;;;;;;8.93;4.40;;;12.30;78.50;;;;;;6241914;23;20007;-78
2023/04/20 10:48:57;;;;;;;5.18;3.70;;;12.30;78.00;;;;;;6240389;23;20008;-79
2023/04/20 10:51:24;;;;;;;8.70;4.70;;;12.50;77.70;;;;;;6241694;22;20000;-79
2023/04/20 10:54:06;;;;;;;6.45;4.45;;;12.50;77.40;;;;;;6241369;23;20004;-79
2023/04/20 10:56:52;;;;;;;4.38;3.97;;;12.60;77.60;;;;;;6242077;22;20818;-79
2023/04/20 10:59:22;;;;;;;5.82;4.25;;;12.60;77.10;;;;;;6242281;22;20035;-78
2023/04/20 11:01:48;;;;;;;5.28;4.00;;;12.60;76.80;;;;;;6243291;22;20004;-79
2023/04/20 11:04:14;;;;;;;7.38;5.13;;;12.60;77.00;;;;;;6240791;23;20007;-79
2023/04/20 11:06:43;;;;;;;7.95;5.25;;;12.60;77.30;;;;;;6243172;22;19997;-78
2023/04/20 11:09:19;;;;;;;5.30;4.25;;;12.60;77.00;;;;;;6240542;23;20062;-79
2023/04/20 11:11:45;;;;;;;10.27;4.60;;;12.70;77.10;;;;;;6242280;22;20020;-81
2023/04/20 11:14:11;;;;;;;6.82;3.78;;;12.70;76.80;;;;;;6242470;23;20000;-79
2023/04/20 11:16:38;;;;;;;6.80;4.68;;;12.70;75.50;;;;;;6240730;23;19996;-83
2023/04/20 11:19:04;;;;;;;6.25;3.83;;;12.60;75.50;;;;;;6240827;23;20007;-79
2023/04/20 11:21:38;;;;;;;6.30;4.18;;;12.60;76.40;;;;;;6242169;22;20000;-76
2023/04/20 11:24:05;;;;;;;6.78;4.10;;;12.70;76.20;;;;;;6240238;23;19997;-77
2023/04/20 11:26:36;;;;;;;4.63;3.85;;;12.60;75.90;;;;;;6241076;22;20000;-76
2023/04/20 11:29:02;;;;;;;5.57;4.07;;;12.40;75.90;;;;;;6240388;23;20050;-78
2023/04/20 11:31:28;;;;;;;7.20;4.35;;;12.20;76.70;;;;;;6240014;23;20039;-79
2023/04/20 11:33:54;;;;;;;5.07;4.57;;;12.10;77.30;;;;;;6242488;22;20078;-78
2023/04/20 11:36:23;;;;;;;6.53;4.43;;;12.20;77.30;;;;;;6241730;23;20059;-77
2023/04/20 11:38:49;;;;;;;5.88;4.28;;;12.20;77.00;;;;;;6241810;22;20000;-77
2023/04/20 11:41:16;;;;;;;7.40;5.30;;;12.10;77.20;;;;;;6241696;23;20019;-76
2023/04/20 11:43:45;;;;;;;5.32;4.80;;;12.10;77.50;;;;;;6241198;23;20007;-77
2023/04/20 11:46:19;;;;;;;6.30;4.78;;;12.10;77.30;;;;;;6243048;23;20061;-78
2023/04/20 11:48:48;;;;;;;;;;;12.10;77.10;;;;;;6249671;22;20027;-77
2023/04/20 11:51:14;;;;;;;6.30;4.18;;;12.20;77.10;;;;;;6247391;22;19899;-76
2023/04/20 11:53:40;;;;;;;4.90;4.38;;;12.40;77.00;;;;;;6242102;22;20066;-75
2023/04/20 11:56:07;;;;;;;5.00;4.50;;;12.50;76.40;;;;;;6243179;23;20414;-76
2023/04/20 11:58:32;;;;;;;7.80;5.05;;;12.60;76.40;;;;;;6246760;22;20060;-79
2023/04/20 12:00:59;;;;;;;4.93;4.43;;;12.50;76.00;;;;;;6246621;23;20008;-74
2023/04/20 12:03:25;;;;;;;6.40;4.60;;;12.40;76.10;;;;;;6241591;22;20004;-75
2023/04/20 12:05:51;;;;;;;5.63;4.45;;;12.30;76.60;;;;;;6242904;22;20011;-77
2023/04/20 12:08:16;;;;;;;6.68;5.18;;;12.20;77.00;;;;;;6242508;22;20295;-76
2023/04/20 12:10:42;;;;;;;5.75;5.05;;;12.30;77.40;;;;;;6243558;23;20004;-77
2023/04/20 12:13:07;;;;;;;6.60;5.43;;;12.30;77.30;;;;;;6243593;23;20004;-77
2023/04/20 12:15:33;;;;;;;5.43;4.90;;;12.20;77.70;;;;;;6243047;23;20107;-78
2023/04/20 12:17:59;;;;;;;6.82;5.38;;;12.20;78.10;;;;;;6243248;23;20015;-78
2023/04/20 12:20:24;;;;;;;6.47;5.35;;;12.20;78.70;;;;;;6242821;23;20035;-78
2023/04/20 12:22:50;;;;;;;6.90;5.57;;;12.40;78.80;;;;;;6240980;23;20004;-78
2023/04/20 12:25:15;;;;;;;5.65;5.05;;;12.50;78.30;;;;;;6242867;23;20008;-77
2023/04/20 12:27:41;;;;;;;6.10;5.50;;;12.50;77.10;;;;;;6243757;23;20007;-77
2023/04/20 12:30:08;;;;;;;6.47;5.82;;;12.40;77.30;;;;;;6243223;23;20054;-77
2023/04/20 12:32:34;;;;;;;6.43;5.70;;;12.40;77.60;;;;;;6242617;22;20008;-77
2023/04/20 12:34:59;;;;;;;5.78;5.18;;;12.20;77.70;;;;;;6243469;22;20015;-77
2023/04/20 12:37:26;;;;;;;6.15;5.55;;;12.10;77.60;;;;;;6241178;23;20344;-78
2023/04/20 12:39:51;;;;;;;10.70;5.97;;;12.00;77.50;;;;;;6242109;23;20000;-78
2023/04/20 12:42:17;;;;;;;5.57;5.07;;;12.00;77.90;;;;;;6242908;22;20011;-77
2023/04/20 12:44:42;;;;;;;6.50;5.78;;;12.00;78.10;;;;;;6243441;22;20008;-78
2023/04/20 12:47:08;;;;;;;8.95;6.28;;;12.10;78.20;;;;;;6243710;23;20370;-79
2023/04/20 12:49:34;;;;;;;6.28;5.63;;;12.30;78.80;;;;;;6242476;23;20003;-78